sensor_id;sensor_type;location;lat;lon;timestamp;P1;durP1;ratioP1;P2;durP2;ratioP2
7193;SDS011;3638;48.820;9.244;2022-12-29T00:00:17;4.33;;;3.77;;
7193;SDS011;3638;48.820;9.244;2022-12-29T00:02:44;5.73;;;3.77;;
7193;SDS011;3638;48.820;9.244;2022-12-29T00:05:12;4.10;;;3.67;;
7193;SDS011;3638;48.820;9.244;2022-12-29T00:07:39;4.07;;;3.67;;
7193;SDS011;3638;48.820;9.244;2022-12-29T00:10:06;4.43;;;3.53;;
7193;SDS011;3638;48.820;9.244;2022-12-29T00:12:34;5.87;;;3.57;;
7193;SDS011;3638;48.820;9.244;2022-12-29T00:15:18;4.10;;;3.70;;
7193;SDS011;3638;48.820;9.244;2022-12-29T00:18:04;4.30;;;3.80;;
7193;SDS011;3638;48.820;9.244;2022-12-29T00:20:34;3.80;;;3.43;;
7193;SDS011;3638;48.820;9.244;2022-12-29T00:23:19;4.60;;;3.70;;
7193;SDS011;3638;48.820;9.244;2022-12-29T00:26:05;4.17;;;3.77;;
7193;SDS011;3638;48.820;9.244;2022-12-29T00:28:56;3.83;;;3.40;;
7193;SDS011;3638;48.820;9.244;2022-12-29T00:31:41;5.07;;;3.63;;
7193;SDS011;3638;48.820;9.244;2022-12-29T00:34:25;3.73;;;3.40;;
7193;SDS011;3638;48.820;9.244;2022-12-29T00:37:11;5.40;;;3.70;;
7193;SDS011;3638;48.820;9.244;2022-12-29T00:39:38;4.23;;;3.80;;
7193;SDS011;3638;48.820;9.244;2022-12-29T00:42:23;4.30;;;3.40;;
7193;SDS011;3638;48.820;9.244;2022-12-29T00:45:07;4.03;;;3.50;;
7193;SDS011;3638;48.820;9.244;2022-12-29T00:47:35;4.17;;;3.57;;
7193;SDS011;3638;48.820;9.244;2022-12-29T00:50:01;3.77;;;3.47;;
7193;SDS011;3638;48.820;9.244;2022-12-29T00:52:29;4.17;;;3.60;;
7193;SDS011;3638;48.820;9.244;2022-12-29T00:54:56;3.70;;;3.40;;
7193;SDS011;3638;48.820;9.244;2022-12-29T00:57:23;3.97;;;3.43;;
7193;SDS011;3638;48.820;9.244;2022-12-29T00:59:50;5.03;;;3.27;;
7193;SDS011;3638;48.820;9.244;2022-12-29T01:02:17;3.43;;;3.13;;
7193;SDS011;3638;48.820;9.244;2022-12-29T01:04:44;3.47;;;3.00;;
7193;SDS011;3638;48.820;9.244;2022-12-29T01:07:11;4.63;;;3.20;;
7193;SDS011;3638;48.820;9.244;2022-12-29T01:09:39;4.67;;;3.23;;
7193;SDS011;3638;48.820;9.244;2022-12-29T01:12:23;3.60;;;3.07;;
7193;SDS011;3638;48.820;9.244;2022-12-29T01:15:04;3.37;;;3.03;;
7193;SDS011;3638;48.820;9.244;2022-12-29T01:17:33;3.70;;;3.30;;
7193;SDS011;3638;48.820;9.244;2022-12-29T01:20:00;4.93;;;3.53;;
7193;SDS011;3638;48.820;9.244;2022-12-29T01:22:27;3.40;;;3.10;;
7193;SDS011;3638;48.820;9.244;2022-12-29T01:24:56;3.53;;;3.00;;
7193;SDS011;3638;48.820;9.244;2022-12-29T01:27:23;3.53;;;3.23;;
7193;SDS011;3638;48.820;9.244;2022-12-29T01:29:49;4.50;;;3.30;;
7193;SDS011;3638;48.820;9.244;2022-12-29T01:32:16;3.20;;;2.90;;
7193;SDS011;3638;48.820;9.244;2022-12-29T01:34:44;3.87;;;3.40;;
7193;SDS011;3638;48.820;9.244;2022-12-29T01:37:10;3.50;;;3.20;;
7193;SDS011;3638;48.820;9.244;2022-12-29T01:39:37;3.40;;;3.10;;
7193;SDS011;3638;48.820;9.244;2022-12-29T01:42:08;4.57;;;2.90;;
7193;SDS011;3638;48.820;9.244;2022-12-29T01:44:53;3.23;;;2.93;;
7193;SDS011;3638;48.820;9.244;2022-12-29T01:47:29;3.30;;;3.00;;
7193;SDS011;3638;48.820;9.244;2022-12-29T01:50:03;3.83;;;2.77;;
7193;SDS011;3638;48.820;9.244;2022-12-29T01:52:33;4.37;;;3.00;;
7193;SDS011;3638;48.820;9.244;2022-12-29T01:55:04;3.73;;;2.90;;
7193;SDS011;3638;48.820;9.244;2022-12-29T01:57:34;5.10;;;3.10;;
7193;SDS011;3638;48.820;9.244;2022-12-29T02:00:07;4.30;;;2.80;;
7193;SDS011;3638;48.820;9.244;2022-12-29T02:02:37;3.37;;;2.73;;
7193;SDS011;3638;48.820;9.244;2022-12-29T02:05:07;3.83;;;2.83;;
7193;SDS011;3638;48.820;9.244;2022-12-29T02:07:37;3.50;;;2.70;;
7193;SDS011;3638;48.820;9.244;2022-12-29T02:10:05;4.73;;;2.87;;
7193;SDS011;3638;48.820;9.244;2022-12-29T02:12:34;5.57;;;2.87;;
7193;SDS011;3638;48.820;9.244;2022-12-29T02:15:02;3.53;;;2.77;;
7193;SDS011;3638;48.820;9.244;2022-12-29T02:17:35;3.77;;;2.90;;
7193;SDS011;3638;48.820;9.244;2022-12-29T02:27:23;3.77;;;3.00;;
7193;SDS011;3638;48.820;9.244;2022-12-29T02:30:16;3.73;;;2.60;;
7193;SDS011;3638;48.820;9.244;2022-12-29T02:33:17;2.70;;;2.50;;
7193;SDS011;3638;48.820;9.244;2022-12-29T02:35:54;4.53;;;2.50;;
7193;SDS011;3638;48.820;9.244;2022-12-29T02:38:32;4.53;;;2.50;;
7193;SDS011;3638;48.820;9.244;2022-12-29T02:41:18;3.87;;;2.50;;
7193;SDS011;3638;48.820;9.244;2022-12-29T02:43:50;3.23;;;2.60;;
7193;SDS011;3638;48.820;9.244;2022-12-29T02:46:26;2.80;;;2.60;;
7193;SDS011;3638;48.820;9.244;2022-12-29T02:49:01;2.70;;;2.47;;
7193;SDS011;3638;48.820;9.244;2022-12-29T02:51:38;3.23;;;2.93;;
7193;SDS011;3638;48.820;9.244;2022-12-29T02:54:12;4.77;;;2.73;;
7193;SDS011;3638;48.820;9.244;2022-12-29T02:56:57;3.80;;;2.70;;
7193;SDS011;3638;48.820;9.244;2022-12-29T02:59:23;2.93;;;2.40;;
7193;SDS011;3638;48.820;9.244;2022-12-29T03:01:59;4.20;;;2.47;;
7193;SDS011;3638;48.820;9.244;2022-12-29T03:04:50;2.60;;;2.40;;
7193;SDS011;3638;48.820;9.244;2022-12-29T03:07:32;3.70;;;2.93;;
7193;SDS011;3638;48.820;9.244;2022-12-29T03:10:10;2.77;;;2.50;;
7193;SDS011;3638;48.820;9.244;2022-12-29T03:12:51;4.57;;;2.60;;
7193;SDS011;3638;48.820;9.244;2022-12-29T03:15:43;2.53;;;2.33;;
7193;SDS011;3638;48.820;9.244;2022-12-29T03:18:31;2.37;;;2.17;;
7193;SDS011;3638;48.820;9.244;2022-12-29T03:21:08;4.93;;;1.93;;
7193;SDS011;3638;48.820;9.244;2022-12-29T03:23:39;2.90;;;2.20;;
7193;SDS011;3638;48.820;9.244;2022-12-29T03:26:10;2.73;;;2.07;;
7193;SDS011;3638;48.820;9.244;2022-12-29T03:28:39;2.83;;;2.13;;
7193;SDS011;3638;48.820;9.244;2022-12-29T03:31:11;3.57;;;2.10;;
7193;SDS011;3638;48.820;9.244;2022-12-29T03:33:41;2.40;;;2.20;;
7193;SDS011;3638;48.820;9.244;2022-12-29T03:36:10;3.53;;;2.23;;
7193;SDS011;3638;48.820;9.244;2022-12-29T03:38:44;2.20;;;2.00;;
7193;SDS011;3638;48.820;9.244;2022-12-29T03:41:17;2.77;;;2.10;;
7193;SDS011;3638;48.820;9.244;2022-12-29T03:43:50;2.20;;;2.00;;
7193;SDS011;3638;48.820;9.244;2022-12-29T03:46:17;4.07;;;1.93;;
7193;SDS011;3638;48.820;9.244;2022-12-29T03:48:45;3.73;;;1.90;;
7193;SDS011;3638;48.820;9.244;2022-12-29T03:51:12;3.43;;;2.10;;
7193;SDS011;3638;48.820;9.244;2022-12-29T03:53:39;2.30;;;2.10;;
7193;SDS011;3638;48.820;9.244;2022-12-29T03:56:06;3.97;;;2.00;;
7193;SDS011;3638;48.820;9.244;2022-12-29T03:58:33;2.30;;;2.10;;
7193;SDS011;3638;48.820;9.244;2022-12-29T04:01:00;2.83;;;2.00;;
7193;SDS011;3638;48.820;9.244;2022-12-29T04:03:27;2.87;;;1.93;;
7193;SDS011;3638;48.820;9.244;2022-12-29T04:05:55;2.90;;;2.00;;
7193;SDS011;3638;48.820;9.244;2022-12-29T04:08:22;5.17;;;1.80;;
7193;SDS011;3638;48.820;9.244;2022-12-29T04:10:50;1.93;;;1.83;;
7193;SDS011;3638;48.820;9.244;2022-12-29T04:13:17;3.43;;;2.00;;
7193;SDS011;3638;48.820;9.244;2022-12-29T04:15:44;3.43;;;1.97;;
7193;SDS011;3638;48.820;9.244;2022-12-29T04:18:11;3.13;;;2.20;;
7193;SDS011;3638;48.820;9.244;2022-12-29T04:20:38;2.63;;;2.40;;
7193;SDS011;3638;48.820;9.244;2022-12-29T04:23:24;3.70;;;2.10;;
7193;SDS011;3638;48.820;9.244;2022-12-29T04:25:51;2.87;;;2.20;;
7193;SDS011;3638;48.820;9.244;2022-12-29T04:28:19;2.57;;;2.03;;
7193;SDS011;3638;48.820;9.244;2022-12-29T04:30:46;3.73;;;1.90;;
7193;SDS011;3638;48.820;9.244;2022-12-29T04:33:13;3.97;;;2.17;;
7193;SDS011;3638;48.820;9.244;2022-12-29T04:35:41;4.23;;;2.00;;
7193;SDS011;3638;48.820;9.244;2022-12-29T04:38:08;2.73;;;2.20;;
7193;SDS011;3638;48.820;9.244;2022-12-29T04:40:38;2.20;;;2.00;;
7193;SDS011;3638;48.820;9.244;2022-12-29T04:43:07;2.40;;;2.03;;
7193;SDS011;3638;48.820;9.244;2022-12-29T04:45:35;2.10;;;2.00;;
7193;SDS011;3638;48.820;9.244;2022-12-29T04:48:02;2.07;;;1.87;;
7193;SDS011;3638;48.820;9.244;2022-12-29T04:50:30;2.93;;;2.10;;
7193;SDS011;3638;48.820;9.244;2022-12-29T04:52:57;2.50;;;2.10;;
7193;SDS011;3638;48.820;9.244;2022-12-29T04:55:24;4.57;;;2.37;;
7193;SDS011;3638;48.820;9.244;2022-12-29T04:57:52;2.20;;;1.97;;
7193;SDS011;3638;48.820;9.244;2022-12-29T05:00:19;2.10;;;1.90;;
7193;SDS011;3638;48.820;9.244;2022-12-29T05:02:46;2.57;;;2.27;;
7193;SDS011;3638;48.820;9.244;2022-12-29T05:05:14;3.77;;;2.40;;
7193;SDS011;3638;48.820;9.244;2022-12-29T05:07:41;2.83;;;2.57;;
7193;SDS011;3638;48.820;9.244;2022-12-29T05:10:08;3.60;;;3.00;;
7193;SDS011;3638;48.820;9.244;2022-12-29T05:12:36;3.43;;;2.40;;
7193;SDS011;3638;48.820;9.244;2022-12-29T05:15:07;3.07;;;2.60;;
7193;SDS011;3638;48.820;9.244;2022-12-29T05:17:35;2.63;;;2.43;;
7193;SDS011;3638;48.820;9.244;2022-12-29T05:20:02;3.43;;;2.40;;
7193;SDS011;3638;48.820;9.244;2022-12-29T05:22:31;2.80;;;2.43;;
7193;SDS011;3638;48.820;9.244;2022-12-29T05:24:58;3.20;;;2.60;;
7193;SDS011;3638;48.820;9.244;2022-12-29T05:27:25;2.70;;;2.30;;
7193;SDS011;3638;48.820;9.244;2022-12-29T05:29:52;5.20;;;2.70;;
7193;SDS011;3638;48.820;9.244;2022-12-29T05:32:21;5.33;;;2.40;;
7193;SDS011;3638;48.820;9.244;2022-12-29T05:34:48;3.13;;;2.67;;
7193;SDS011;3638;48.820;9.244;2022-12-29T05:37:15;6.47;;;2.40;;
7193;SDS011;3638;48.820;9.244;2022-12-29T05:39:41;4.03;;;2.40;;
7193;SDS011;3638;48.820;9.244;2022-12-29T05:42:09;2.13;;;2.00;;
7193;SDS011;3638;48.820;9.244;2022-12-29T05:44:36;2.87;;;2.57;;
7193;SDS011;3638;48.820;9.244;2022-12-29T05:47:03;3.53;;;2.30;;
7193;SDS011;3638;48.820;9.244;2022-12-29T05:49:32;5.17;;;2.93;;
7193;SDS011;3638;48.820;9.244;2022-12-29T05:51:59;5.50;;;3.10;;
7193;SDS011;3638;48.820;9.244;2022-12-29T05:54:26;5.87;;;3.20;;
7193;SDS011;3638;48.820;9.244;2022-12-29T05:56:53;4.43;;;3.30;;
7193;SDS011;3638;48.820;9.244;2022-12-29T05:59:20;2.57;;;2.27;;
7193;SDS011;3638;48.820;9.244;2022-12-29T06:01:47;3.53;;;2.97;;
7193;SDS011;3638;48.820;9.244;2022-12-29T06:04:14;5.53;;;2.57;;
7193;SDS011;3638;48.820;9.244;2022-12-29T06:06:43;3.10;;;2.60;;
7193;SDS011;3638;48.820;9.244;2022-12-29T06:09:10;5.00;;;2.93;;
7193;SDS011;3638;48.820;9.244;2022-12-29T06:11:37;3.80;;;2.80;;
7193;SDS011;3638;48.820;9.244;2022-12-29T06:14:04;4.33;;;2.73;;
7193;SDS011;3638;48.820;9.244;2022-12-29T06:16:31;4.87;;;2.53;;
7193;SDS011;3638;48.820;9.244;2022-12-29T06:18:58;4.23;;;2.93;;
7193;SDS011;3638;48.820;9.244;2022-12-29T06:21:25;4.37;;;2.30;;
7193;SDS011;3638;48.820;9.244;2022-12-29T06:23:53;2.50;;;2.30;;
7193;SDS011;3638;48.820;9.244;2022-12-29T06:26:20;3.87;;;2.70;;
7193;SDS011;3638;48.820;9.244;2022-12-29T06:28:47;3.27;;;2.33;;
7193;SDS011;3638;48.820;9.244;2022-12-29T06:31:14;3.03;;;2.70;;
7193;SDS011;3638;48.820;9.244;2022-12-29T06:33:41;3.47;;;2.43;;
7193;SDS011;3638;48.820;9.244;2022-12-29T06:36:07;2.37;;;2.10;;
7193;SDS011;3638;48.820;9.244;2022-12-29T06:38:34;3.43;;;2.50;;
7193;SDS011;3638;48.820;9.244;2022-12-29T06:41:02;4.30;;;2.70;;
7193;SDS011;3638;48.820;9.244;2022-12-29T06:43:30;2.50;;;2.30;;
7193;SDS011;3638;48.820;9.244;2022-12-29T06:45:57;3.40;;;2.40;;
7193;SDS011;3638;48.820;9.244;2022-12-29T06:48:24;3.60;;;2.50;;
7193;SDS011;3638;48.820;9.244;2022-12-29T06:50:51;3.13;;;2.60;;
7193;SDS011;3638;48.820;9.244;2022-12-29T06:53:18;5.50;;;2.50;;
7193;SDS011;3638;48.820;9.244;2022-12-29T06:55:44;3.17;;;2.50;;
7193;SDS011;3638;48.820;9.244;2022-12-29T06:58:13;3.07;;;2.73;;
7193;SDS011;3638;48.820;9.244;2022-12-29T07:00:39;4.17;;;2.97;;
7193;SDS011;3638;48.820;9.244;2022-12-29T07:03:06;2.60;;;2.40;;
7193;SDS011;3638;48.820;9.244;2022-12-29T07:05:34;3.97;;;2.83;;
7193;SDS011;3638;48.820;9.244;2022-12-29T07:08:00;4.40;;;3.03;;
7193;SDS011;3638;48.820;9.244;2022-12-29T07:10:28;4.40;;;3.00;;
7193;SDS011;3638;48.820;9.244;2022-12-29T07:12:55;5.13;;;3.50;;
7193;SDS011;3638;48.820;9.244;2022-12-29T07:15:23;3.23;;;2.63;;
7193;SDS011;3638;48.820;9.244;2022-12-29T07:17:50;3.43;;;2.67;;
7193;SDS011;3638;48.820;9.244;2022-12-29T07:20:17;3.43;;;2.67;;
7193;SDS011;3638;48.820;9.244;2022-12-29T07:22:44;2.87;;;2.67;;
7193;SDS011;3638;48.820;9.244;2022-12-29T07:25:12;3.17;;;2.37;;
7193;SDS011;3638;48.820;9.244;2022-12-29T07:27:39;4.20;;;2.77;;
7193;SDS011;3638;48.820;9.244;2022-12-29T07:30:06;3.73;;;2.60;;
7193;SDS011;3638;48.820;9.244;2022-12-29T07:32:35;3.30;;;3.00;;
7193;SDS011;3638;48.820;9.244;2022-12-29T07:35:02;3.57;;;2.37;;
7193;SDS011;3638;48.820;9.244;2022-12-29T07:37:30;3.13;;;2.83;;
7193;SDS011;3638;48.820;9.244;2022-12-29T07:39:57;2.57;;;2.37;;
7193;SDS011;3638;48.820;9.244;2022-12-29T07:42:24;2.63;;;2.43;;
7193;SDS011;3638;48.820;9.244;2022-12-29T07:44:51;2.50;;;2.30;;
7193;SDS011;3638;48.820;9.244;2022-12-29T07:47:18;5.77;;;2.60;;
7193;SDS011;3638;48.820;9.244;2022-12-29T07:49:46;3.77;;;2.50;;
7193;SDS011;3638;48.820;9.244;2022-12-29T07:52:13;3.13;;;2.37;;
7193;SDS011;3638;48.820;9.244;2022-12-29T07:54:40;2.70;;;2.40;;
7193;SDS011;3638;48.820;9.244;2022-12-29T07:57:07;3.40;;;2.40;;
7193;SDS011;3638;48.820;9.244;2022-12-29T07:59:34;5.03;;;2.23;;
7193;SDS011;3638;48.820;9.244;2022-12-29T08:02:01;3.33;;;2.20;;
7193;SDS011;3638;48.820;9.244;2022-12-29T08:04:28;2.73;;;2.33;;
7193;SDS011;3638;48.820;9.244;2022-12-29T08:06:57;2.33;;;2.13;;
7193;SDS011;3638;48.820;9.244;2022-12-29T08:09:25;2.23;;;2.03;;
7193;SDS011;3638;48.820;9.244;2022-12-29T08:11:51;2.50;;;2.20;;
7193;SDS011;3638;48.820;9.244;2022-12-29T08:14:19;3.67;;;2.27;;
7193;SDS011;3638;48.820;9.244;2022-12-29T08:16:46;2.80;;;2.20;;
7193;SDS011;3638;48.820;9.244;2022-12-29T08:19:13;3.63;;;2.40;;
7193;SDS011;3638;48.820;9.244;2022-12-29T08:21:40;2.17;;;2.03;;
7193;SDS011;3638;48.820;9.244;2022-12-29T08:24:09;2.37;;;2.13;;
7193;SDS011;3638;48.820;9.244;2022-12-29T08:26:36;2.87;;;1.90;;
7193;SDS011;3638;48.820;9.244;2022-12-29T08:29:04;2.30;;;2.10;;
7193;SDS011;3638;48.820;9.244;2022-12-29T08:31:31;2.80;;;2.03;;
7193;SDS011;3638;48.820;9.244;2022-12-29T08:33:59;3.27;;;2.50;;
7193;SDS011;3638;48.820;9.244;2022-12-29T08:36:28;4.47;;;2.27;;
7193;SDS011;3638;48.820;9.244;2022-12-29T08:38:55;3.60;;;2.70;;
7193;SDS011;3638;48.820;9.244;2022-12-29T08:41:25;2.90;;;2.60;;
7193;SDS011;3638;48.820;9.244;2022-12-29T08:43:52;4.03;;;2.60;;
7193;SDS011;3638;48.820;9.244;2022-12-29T08:46:19;2.60;;;2.17;;
7193;SDS011;3638;48.820;9.244;2022-12-29T08:48:46;2.80;;;2.20;;
7193;SDS011;3638;48.820;9.244;2022-12-29T08:51:13;3.00;;;2.10;;
7193;SDS011;3638;48.820;9.244;2022-12-29T08:53:40;2.53;;;2.30;;
7193;SDS011;3638;48.820;9.244;2022-12-29T08:56:08;2.30;;;2.10;;
7193;SDS011;3638;48.820;9.244;2022-12-29T08:58:37;2.40;;;2.20;;
7193;SDS011;3638;48.820;9.244;2022-12-29T09:01:04;3.07;;;2.10;;
7193;SDS011;3638;48.820;9.244;2022-12-29T09:03:31;2.43;;;2.03;;
7193;SDS011;3638;48.820;9.244;2022-12-29T09:05:58;3.13;;;1.90;;
7193;SDS011;3638;48.820;9.244;2022-12-29T09:08:25;2.60;;;2.30;;
7193;SDS011;3638;48.820;9.244;2022-12-29T09:10:53;2.47;;;2.27;;
7193;SDS011;3638;48.820;9.244;2022-12-29T09:13:20;5.57;;;2.20;;
7193;SDS011;3638;48.820;9.244;2022-12-29T09:15:48;2.43;;;2.23;;
7193;SDS011;3638;48.820;9.244;2022-12-29T09:18:23;2.53;;;2.10;;
7193;SDS011;3638;48.820;9.244;2022-12-29T09:20:55;3.10;;;1.90;;
7193;SDS011;3638;48.820;9.244;2022-12-29T09:23:23;2.00;;;1.90;;
7193;SDS011;3638;48.820;9.244;2022-12-29T09:25:50;4.03;;;2.30;;
7193;SDS011;3638;48.820;9.244;2022-12-29T09:28:18;2.43;;;2.00;;
7193;SDS011;3638;48.820;9.244;2022-12-29T09:30:45;3.20;;;2.10;;
7193;SDS011;3638;48.820;9.244;2022-12-29T09:33:13;2.30;;;2.10;;
7193;SDS011;3638;48.820;9.244;2022-12-29T09:35:41;6.63;;;2.23;;
7193;SDS011;3638;48.820;9.244;2022-12-29T09:38:09;3.57;;;2.10;;
7193;SDS011;3638;48.820;9.244;2022-12-29T09:40:37;2.63;;;1.97;;
7193;SDS011;3638;48.820;9.244;2022-12-29T09:43:10;3.80;;;2.00;;
7193;SDS011;3638;48.820;9.244;2022-12-29T09:46:07;2.27;;;2.00;;
7193;SDS011;3638;48.820;9.244;2022-12-29T09:48:45;3.00;;;2.30;;
7193;SDS011;3638;48.820;9.244;2022-12-29T09:51:18;3.07;;;2.20;;
7193;SDS011;3638;48.820;9.244;2022-12-29T09:53:49;2.80;;;2.07;;
7193;SDS011;3638;48.820;9.244;2022-12-29T09:56:21;4.80;;;2.40;;
7193;SDS011;3638;48.820;9.244;2022-12-29T09:58:52;3.37;;;2.00;;
7193;SDS011;3638;48.820;9.244;2022-12-29T10:01:26;2.87;;;2.07;;
7193;SDS011;3638;48.820;9.244;2022-12-29T10:03:58;2.10;;;2.00;;
7193;SDS011;3638;48.820;9.244;2022-12-29T10:06:31;2.77;;;2.10;;
7193;SDS011;3638;48.820;9.244;2022-12-29T10:09:08;4.63;;;2.00;;
7193;SDS011;3638;48.820;9.244;2022-12-29T10:11:54;1.97;;;1.87;;
7193;SDS011;3638;48.820;9.244;2022-12-29T10:14:46;2.00;;;1.90;;
7193;SDS011;3638;48.820;9.244;2022-12-29T10:17:27;3.87;;;2.30;;
7193;SDS011;3638;48.820;9.244;2022-12-29T10:23:00;3.30;;;2.23;;
7193;SDS011;3638;48.820;9.244;2022-12-29T10:25:48;5.20;;;2.60;;
7193;SDS011;3638;48.820;9.244;2022-12-29T10:28:19;2.60;;;2.33;;
7193;SDS011;3638;48.820;9.244;2022-12-29T10:30:49;3.27;;;2.97;;
7193;SDS011;3638;48.820;9.244;2022-12-29T10:33:19;3.53;;;2.40;;
7193;SDS011;3638;48.820;9.244;2022-12-29T10:35:50;4.53;;;2.33;;
7193;SDS011;3638;48.820;9.244;2022-12-29T10:38:20;3.10;;;2.50;;
7193;SDS011;3638;48.820;9.244;2022-12-29T10:40:53;2.60;;;2.40;;
7193;SDS011;3638;48.820;9.244;2022-12-29T10:43:26;2.40;;;2.20;;
7193;SDS011;3638;48.820;9.244;2022-12-29T10:45:56;3.00;;;2.10;;
7193;SDS011;3638;48.820;9.244;2022-12-29T10:48:30;3.23;;;2.03;;
7193;SDS011;3638;48.820;9.244;2022-12-29T10:51:01;3.73;;;2.20;;
7193;SDS011;3638;48.820;9.244;2022-12-29T10:53:33;5.57;;;3.83;;
7193;SDS011;3638;48.820;9.244;2022-12-29T10:56:21;3.00;;;2.60;;
7193;SDS011;3638;48.820;9.244;2022-12-29T10:58:58;4.30;;;3.30;;
7193;SDS011;3638;48.820;9.244;2022-12-29T11:01:35;4.80;;;3.00;;
7193;SDS011;3638;48.820;9.244;2022-12-29T11:04:10;7.97;;;4.80;;
7193;SDS011;3638;48.820;9.244;2022-12-29T11:06:56;6.30;;;3.93;;
7193;SDS011;3638;48.820;9.244;2022-12-29T11:09:24;5.23;;;4.00;;
7193;SDS011;3638;48.820;9.244;2022-12-29T11:11:54;5.87;;;4.10;;
7193;SDS011;3638;48.820;9.244;2022-12-29T11:14:26;6.33;;;3.80;;
7193;SDS011;3638;48.820;9.244;2022-12-29T11:16:56;5.13;;;3.77;;
7193;SDS011;3638;48.820;9.244;2022-12-29T11:19:27;6.33;;;3.03;;
7193;SDS011;3638;48.820;9.244;2022-12-29T11:22:00;4.47;;;3.20;;
7193;SDS011;3638;48.820;9.244;2022-12-29T11:24:43;6.27;;;3.10;;
7193;SDS011;3638;48.820;9.244;2022-12-29T11:27:14;5.40;;;3.37;;
7193;SDS011;3638;48.820;9.244;2022-12-29T11:29:44;9.13;;;6.33;;
7193;SDS011;3638;48.820;9.244;2022-12-29T11:32:12;17.90;;;10.57;;
7193;SDS011;3638;48.820;9.244;2022-12-29T11:34:44;14.70;;;10.07;;
7193;SDS011;3638;48.820;9.244;2022-12-29T11:37:13;26.40;;;15.63;;
7193;SDS011;3638;48.820;9.244;2022-12-29T11:39:45;5.17;;;4.20;;
7193;SDS011;3638;48.820;9.244;2022-12-29T11:42:17;10.53;;;6.93;;
7193;SDS011;3638;48.820;9.244;2022-12-29T11:44:49;6.77;;;3.83;;
7193;SDS011;3638;48.820;9.244;2022-12-29T11:47:22;4.83;;;3.20;;
7193;SDS011;3638;48.820;9.244;2022-12-29T11:49:55;5.20;;;3.60;;
7193;SDS011;3638;48.820;9.244;2022-12-29T11:52:27;3.27;;;2.07;;
7193;SDS011;3638;48.820;9.244;2022-12-29T11:55:00;4.17;;;2.87;;
7193;SDS011;3638;48.820;9.244;2022-12-29T11:57:29;6.67;;;3.23;;
7193;SDS011;3638;48.820;9.244;2022-12-29T12:00:02;4.90;;;2.80;;
7193;SDS011;3638;48.820;9.244;2022-12-29T12:02:42;3.07;;;2.20;;
7193;SDS011;3638;48.820;9.244;2022-12-29T12:05:18;2.90;;;2.50;;
7193;SDS011;3638;48.820;9.244;2022-12-29T12:07:54;3.10;;;2.27;;
7193;SDS011;3638;48.820;9.244;2022-12-29T12:10:28;2.90;;;2.17;;
7193;SDS011;3638;48.820;9.244;2022-12-29T12:13:02;4.27;;;3.33;;
7193;SDS011;3638;48.820;9.244;2022-12-29T12:15:35;3.13;;;2.33;;
7193;SDS011;3638;48.820;9.244;2022-12-29T12:18:08;5.50;;;2.30;;
7193;SDS011;3638;48.820;9.244;2022-12-29T12:20:42;3.10;;;2.40;;
7193;SDS011;3638;48.820;9.244;2022-12-29T12:23:38;3.03;;;2.70;;
7193;SDS011;3638;48.820;9.244;2022-12-29T12:26:24;2.40;;;2.20;;
7193;SDS011;3638;48.820;9.244;2022-12-29T12:28:58;2.63;;;2.40;;
7193;SDS011;3638;48.820;9.244;2022-12-29T12:31:35;2.90;;;2.30;;
7193;SDS011;3638;48.820;9.244;2022-12-29T12:34:13;2.83;;;1.90;;
7193;SDS011;3638;48.820;9.244;2022-12-29T12:39:56;3.80;;;2.47;;
7193;SDS011;3638;48.820;9.244;2022-12-29T12:42:44;3.77;;;2.80;;
7193;SDS011;3638;48.820;9.244;2022-12-29T12:45:32;4.43;;;2.30;;
7193;SDS011;3638;48.820;9.244;2022-12-29T12:48:20;2.47;;;2.27;;
7193;SDS011;3638;48.820;9.244;2022-12-29T12:51:05;4.03;;;2.50;;
7193;SDS011;3638;48.820;9.244;2022-12-29T12:53:45;3.20;;;2.10;;
7193;SDS011;3638;48.820;9.244;2022-12-29T12:56:37;3.90;;;1.90;;
7193;SDS011;3638;48.820;9.244;2022-12-29T12:59:23;3.47;;;2.73;;
7193;SDS011;3638;48.820;9.244;2022-12-29T13:02:06;2.43;;;2.13;;
7193;SDS011;3638;48.820;9.244;2022-12-29T13:04:50;4.43;;;2.13;;
7193;SDS011;3638;48.820;9.244;2022-12-29T13:07:36;3.13;;;2.07;;
7193;SDS011;3638;48.820;9.244;2022-12-29T13:10:36;3.10;;;2.20;;
7193;SDS011;3638;48.820;9.244;2022-12-29T13:13:31;3.10;;;2.20;;
7193;SDS011;3638;48.820;9.244;2022-12-29T13:16:20;3.33;;;2.23;;
7193;SDS011;3638;48.820;9.244;2022-12-29T13:18:56;3.00;;;2.03;;
7193;SDS011;3638;48.820;9.244;2022-12-29T13:21:34;3.23;;;2.57;;
7193;SDS011;3638;48.820;9.244;2022-12-29T13:24:16;2.13;;;2.00;;
7193;SDS011;3638;48.820;9.244;2022-12-29T13:26:52;2.80;;;2.60;;
7193;SDS011;3638;48.820;9.244;2022-12-29T13:29:29;3.27;;;2.37;;
7193;SDS011;3638;48.820;9.244;2022-12-29T13:32:04;2.80;;;2.50;;
7193;SDS011;3638;48.820;9.244;2022-12-29T13:34:49;7.57;;;3.93;;
7193;SDS011;3638;48.820;9.244;2022-12-29T13:37:33;2.70;;;2.07;;
7193;SDS011;3638;48.820;9.244;2022-12-29T13:40:14;2.90;;;2.20;;
7193;SDS011;3638;48.820;9.244;2022-12-29T13:42:45;2.40;;;2.20;;
7193;SDS011;3638;48.820;9.244;2022-12-29T13:45:15;4.23;;;2.33;;
7193;SDS011;3638;48.820;9.244;2022-12-29T13:47:47;4.13;;;2.33;;
7193;SDS011;3638;48.820;9.244;2022-12-29T13:50:22;2.83;;;2.13;;
7193;SDS011;3638;48.820;9.244;2022-12-29T13:52:55;2.40;;;2.20;;
7193;SDS011;3638;48.820;9.244;2022-12-29T13:55:32;2.93;;;2.30;;
7193;SDS011;3638;48.820;9.244;2022-12-29T13:58:07;2.93;;;2.30;;
7193;SDS011;3638;48.820;9.244;2022-12-29T14:00:46;4.50;;;2.70;;
7193;SDS011;3638;48.820;9.244;2022-12-29T14:03:27;5.07;;;2.77;;
7193;SDS011;3638;48.820;9.244;2022-12-29T14:06:12;4.33;;;2.20;;
7193;SDS011;3638;48.820;9.244;2022-12-29T14:08:46;2.87;;;2.07;;
7193;SDS011;3638;48.820;9.244;2022-12-29T14:11:14;3.30;;;2.30;;
7193;SDS011;3638;48.820;9.244;2022-12-29T14:13:44;3.80;;;2.30;;
7193;SDS011;3638;48.820;9.244;2022-12-29T14:16:24;3.27;;;2.17;;
7193;SDS011;3638;48.820;9.244;2022-12-29T14:18:55;2.27;;;2.07;;
7193;SDS011;3638;48.820;9.244;2022-12-29T14:21:31;8.00;;;2.30;;
7193;SDS011;3638;48.820;9.244;2022-12-29T14:33:27;3.37;;;2.20;;
7193;SDS011;3638;48.820;9.244;2022-12-29T14:35:56;3.23;;;2.53;;
7193;SDS011;3638;48.820;9.244;2022-12-29T14:38:25;3.33;;;2.90;;
7193;SDS011;3638;48.820;9.244;2022-12-29T14:41:16;5.67;;;4.13;;
7193;SDS011;3638;48.820;9.244;2022-12-29T14:46:48;4.07;;;2.50;;
7193;SDS011;3638;48.820;9.244;2022-12-29T14:49:24;2.93;;;2.60;;
7193;SDS011;3638;48.820;9.244;2022-12-29T14:51:54;5.93;;;3.20;;
7193;SDS011;3638;48.820;9.244;2022-12-29T14:54:40;5.10;;;3.43;;
7193;SDS011;3638;48.820;9.244;2022-12-29T14:57:18;6.43;;;2.70;;
7193;SDS011;3638;48.820;9.244;2022-12-29T14:59:57;2.90;;;2.47;;
7193;SDS011;3638;48.820;9.244;2022-12-29T15:02:33;3.87;;;2.70;;
7193;SDS011;3638;48.820;9.244;2022-12-29T15:05:14;2.63;;;2.30;;
7193;SDS011;3638;48.820;9.244;2022-12-29T15:07:56;4.20;;;2.60;;
7193;SDS011;3638;48.820;9.244;2022-12-29T15:10:24;3.03;;;2.50;;
7193;SDS011;3638;48.820;9.244;2022-12-29T15:12:53;3.20;;;2.90;;
7193;SDS011;3638;48.820;9.244;2022-12-29T15:15:22;5.67;;;3.00;;
7193;SDS011;3638;48.820;9.244;2022-12-29T15:17:51;4.63;;;2.73;;
7193;SDS011;3638;48.820;9.244;2022-12-29T15:20:24;3.60;;;3.00;;
7193;SDS011;3638;48.820;9.244;2022-12-29T15:22:54;3.07;;;2.73;;
7193;SDS011;3638;48.820;9.244;2022-12-29T15:25:24;4.17;;;3.00;;
7193;SDS011;3638;48.820;9.244;2022-12-29T15:27:52;5.13;;;2.13;;
7193;SDS011;3638;48.820;9.244;2022-12-29T15:30:25;2.97;;;2.47;;
7193;SDS011;3638;48.820;9.244;2022-12-29T15:32:52;3.43;;;2.70;;
7193;SDS011;3638;48.820;9.244;2022-12-29T15:35:25;9.40;;;3.30;;
7193;SDS011;3638;48.820;9.244;2022-12-29T15:37:56;3.00;;;2.70;;
7193;SDS011;3638;48.820;9.244;2022-12-29T15:40:25;3.33;;;2.43;;
7193;SDS011;3638;48.820;9.244;2022-12-29T15:42:57;4.77;;;2.50;;
7193;SDS011;3638;48.820;9.244;2022-12-29T15:45:42;4.70;;;2.80;;
7193;SDS011;3638;48.820;9.244;2022-12-29T15:48:13;3.93;;;2.63;;
7193;SDS011;3638;48.820;9.244;2022-12-29T15:50:45;5.17;;;2.87;;
7193;SDS011;3638;48.820;9.244;2022-12-29T15:53:12;2.03;;;1.90;;
7193;SDS011;3638;48.820;9.244;2022-12-29T15:55:49;2.77;;;2.17;;
7193;SDS011;3638;48.820;9.244;2022-12-29T15:58:18;1.60;;;1.50;;
7193;SDS011;3638;48.820;9.244;2022-12-29T16:00:49;2.30;;;2.10;;
7193;SDS011;3638;48.820;9.244;2022-12-29T16:03:18;2.27;;;2.10;;
7193;SDS011;3638;48.820;9.244;2022-12-29T16:05:51;2.27;;;2.07;;
7193;SDS011;3638;48.820;9.244;2022-12-29T16:08:23;2.53;;;2.10;;
7193;SDS011;3638;48.820;9.244;2022-12-29T16:10:59;2.87;;;2.23;;